Tropical Cyclones
[Index]
Main Index Home Page Stock Weather Photos Extreme Storms Discussion Storm News and Storm Chasing Reports Tropical Cyclones / Hurricanes / Typhoons Weather Data and Links Wild Fires / Bushfires Weather Observation Techniques Weather Picture Catalogue Tornado Pictures and Reports Stock Video Footage and DVDs for sale
Season 2001-2002 Tropical Cyclone DINA Track Map
Season 2001-2002 Summaries: [BoM-AU] [JTWC-AU] [JTWC-SIO] [JTWC-SPAC] [JTWC-SH]
<<- Previous TC | JTWC 2001-2002 Season | Next TC ->>

click for intensity scale information  Lat/long Grid: Show Hide

 Date Labels: Show Hide

Joint Typhoon Warning Centre Cyclone Data

Name: DINA

16 Jan 2002 12:00 UTC to 25 Jan 2002 12:00 UTC

    date/time    lat    long     hPa   cat  kts
2002-01-16 12    6.8    77.9    1002         25          
2002-01-16 18    7.3    76.7    1002         25          
2002-01-17 00    8.2    75.9    1002         25          
2002-01-17 06    9.6    74.9    1003         25          
2002-01-17 12   10.6    73.5    1000         30          
2002-01-17 18   11.5    72.1     984    2    55          
2002-01-18 00   12.4    70.8     976    2    65          
2002-01-18 06   13.4    69.7     972    2    70          
2002-01-18 12   14.4    68.7     963    3    80          
2002-01-18 18   15.4    67.9     958    3    85          
2002-01-19 00   15.9    67.4     954    3    90          
2002-01-19 06   16.5    66.9     954    3    90          
2002-01-19 12   17.0    66.3     949    3    95          
2002-01-19 18   17.3    65.7     938    4   105          
2002-01-20 00   17.7    65.0     922    4   120          
2002-01-20 06   18.0    64.2     910    5   130          
2002-01-20 12   18.3    63.3     910    5   130          
2002-01-20 18   18.5    62.5     910    5   130          
2002-01-21 00   18.8    61.5     916    5   125          
2002-01-21 06   18.9    60.5     922    4   120          
2002-01-21 12   19.1    59.6     922    4   120          
2002-01-21 18   19.3    58.6     922    4   120          
2002-01-22 00   19.4    57.6     922    4   120          
2002-01-22 06   19.7    56.6     922    4   120          
2002-01-22 12   20.0    55.7     922    4   120          
2002-01-22 18   20.3    54.9     927    4   115          
2002-01-23 00   20.9    54.3     927    4   115          
2002-01-23 06   21.3    53.7     927    4   115          
2002-01-23 12   22.0    53.2     927    4   115          
2002-01-23 18   22.8    52.9     944    4   100          
2002-01-24 00   23.9    52.6     954    3    90          
2002-01-24 06   25.0    52.3     963    3    80          
2002-01-24 12   26.3    52.0     972    2    70          
2002-01-24 18   27.7    52.4     984    2    55          
2002-01-25 00   28.7    53.0     991    1    45          
2002-01-25 06   29.3    53.0     997         35          
2002-01-25 12   30.0    53.2     997         35          
Winds are 1-min average.

Tropical cyclone tracks developed by Michael Bath using data from the Joint Typhoon Warning Centre Best Tracks and Google Maps.


[Australian Severe Weather index] [Copyright Notice] [Email Contacts] [Search This Site] [Privacy Policy]
Document: tropical_cyclone_dina.htm Updated: 28 June 2017